Decoded Metar for SASJ (JUJUY in ARGENTINA) (IATA:JUJ) | Meteo·Mobile Aviation Weather
aviador You're here:

SASJ Decoded Metar

JUJUY in ARGENTINA
Report Time2018-09-18 15:00:00
UTC Time2018-09-18 16:04:39
Flight Rules vfr VFR
Wind180° at 04 kt
W.Decomp.*RWY 16: 3.6 kt HW 1.8 kt RCW
W.Rank180° ranks 3
Current wind is below 180° avg. (7.8)
Visibility9999 m
Phenomena:N/A
Clouds:N/A
Expected CloudBase > 5,200 ft AGL from Temp-Dew spread
CeilingNone
Temp24°C (ISA +17)
Dew Point11°C (44% RH)
AAT22.9°C
QNH1010 hPa
Density Alt6,024 ft
Elevation3,829 ft
Report Wrong Elevation
Raw Report
SASJ 181500Z 18004KT CAVOK 24/11 Q1010=

Extra information for SASJ:More info

Metar Taf Metar & Taf Last 4 Metars F.Rules Stats Wind Profile Meteogram Temp Stats Airport Information Weather charts Add Link Nearby VenuesMetar ALERT Operation Metar Decoded Social comments